sensor_id;sensor_type;location;lat;lon;timestamp;pressure;altitude;pressure_sealevel;temperature;humidity
31873;BME280;22407;42.820;23.374;2024-02-14T01:08:31;95432.13;;;4.88;98.73
31873;BME280;22407;42.820;23.374;2024-02-14T01:10:57;95426.28;;;4.76;99.74
31873;BME280;22407;42.820;23.374;2024-02-14T01:13:23;95438.63;;;4.77;100.00
31873;BME280;22407;42.820;23.374;2024-02-14T01:15:48;95448.81;;;4.75;100.00
31873;BME280;22407;42.820;23.374;2024-02-14T01:18:13;95454.22;;;4.65;97.76
31873;BME280;22407;42.820;23.374;2024-02-14T01:20:39;95449.69;;;4.61;98.42
31873;BME280;22407;42.820;23.374;2024-02-14T01:23:04;95454.97;;;4.76;98.68
31873;BME280;22407;42.820;23.374;2024-02-14T01:25:30;95452.63;;;4.59;97.04
31873;BME280;22407;42.820;23.374;2024-02-14T01:27:56;95451.53;;;4.60;98.22
31873;BME280;22407;42.820;23.374;2024-02-14T01:30:21;95446.72;;;4.62;98.90
31873;BME280;22407;42.820;23.374;2024-02-14T01:32:47;95448.94;;;4.40;100.00
31873;BME280;22407;42.820;23.374;2024-02-14T01:35:12;95445.44;;;4.45;100.00
31873;BME280;22407;42.820;23.374;2024-02-14T01:37:38;95444.66;;;4.44;100.00
31873;BME280;22407;42.820;23.374;2024-02-14T01:40:05;95447.38;;;4.34;100.00
31873;BME280;22407;42.820;23.374;2024-02-14T01:42:32;95448.97;;;4.35;100.00
31873;BME280;22407;42.820;23.374;2024-02-14T01:44:58;95453.47;;;4.50;100.00
31873;BME280;22407;42.820;23.374;2024-02-14T01:47:24;95448.44;;;4.38;100.00
31873;BME280;22407;42.820;23.374;2024-02-14T01:49:50;95450.19;;;4.68;100.00
31873;BME280;22407;42.820;23.374;2024-02-14T01:52:15;95448.13;;;4.45;100.00
31873;BME280;22407;42.820;23.374;2024-02-14T01:54:41;95448.56;;;4.67;100.00
31873;BME280;22407;42.820;23.374;2024-02-14T01:57:08;95453.16;;;4.66;99.65
31873;BME280;22407;42.820;23.374;2024-02-14T01:59:34;95446.97;;;4.66;99.79
31873;BME280;22407;42.820;23.374;2024-02-14T02:02:00;95446.13;;;4.75;99.24
31873;BME280;22407;42.820;23.374;2024-02-14T02:04:26;95458.97;;;4.83;98.62
31873;BME280;22407;42.820;23.374;2024-02-14T02:06:52;95441.91;;;4.59;98.25
31873;BME280;22407;42.820;23.374;2024-02-14T02:09:22;95441.34;;;4.62;99.36
31873;BME280;22407;42.820;23.374;2024-02-14T02:11:49;95453.22;;;4.46;98.35
31873;BME280;22407;42.820;23.374;2024-02-14T02:14:15;95446.53;;;4.39;98.74
31873;BME280;22407;42.820;23.374;2024-02-14T02:16:42;95447.91;;;4.31;99.68
31873;BME280;22407;42.820;23.374;2024-02-14T02:19:08;95452.69;;;4.39;99.46
31873;BME280;22407;42.820;23.374;2024-02-14T02:21:35;95454.28;;;4.40;98.14
31873;BME280;22407;42.820;23.374;2024-02-14T02:24:01;95458.63;;;4.36;98.70
31873;BME280;22407;42.820;23.374;2024-02-14T02:26:27;95458.59;;;4.46;96.35
31873;BME280;22407;42.820;23.374;2024-02-14T02:28:53;95449.72;;;4.51;94.83
31873;BME280;22407;42.820;23.374;2024-02-14T02:31:19;95460.97;;;4.53;95.01
31873;BME280;22407;42.820;23.374;2024-02-14T02:33:45;95465.50;;;4.57;94.22
31873;BME280;22407;42.820;23.374;2024-02-14T02:36:11;95463.91;;;4.56;95.06
31873;BME280;22407;42.820;23.374;2024-02-14T02:38:37;95462.22;;;4.70;94.39
31873;BME280;22407;42.820;23.374;2024-02-14T02:41:03;95476.16;;;4.77;95.79
31873;BME280;22407;42.820;23.374;2024-02-14T02:43:32;95476.19;;;4.67;97.99
31873;BME280;22407;42.820;23.374;2024-02-14T02:45:58;95478.88;;;4.67;98.61
31873;BME280;22407;42.820;23.374;2024-02-14T02:48:24;95486.31;;;4.80;98.86
31873;BME280;22407;42.820;23.374;2024-02-14T02:50:50;95481.63;;;4.47;98.92
31873;BME280;22407;42.820;23.374;2024-02-14T02:53:16;95489.69;;;4.37;99.58
31873;BME280;22407;42.820;23.374;2024-02-14T02:55:42;95498.00;;;4.26;100.00
31873;BME280;22407;42.820;23.374;2024-02-14T02:58:07;95500.63;;;4.46;100.00
31873;BME280;22407;42.820;23.374;2024-02-14T03:00:33;95501.19;;;4.53;100.00
31873;BME280;22407;42.820;23.374;2024-02-14T03:02:59;95507.88;;;4.50;100.00
31873;BME280;22407;42.820;23.374;2024-02-14T03:05:25;95507.75;;;4.80;99.11
31873;BME280;22407;42.820;23.374;2024-02-14T03:07:51;95510.28;;;4.52;100.00
31873;BME280;22407;42.820;23.374;2024-02-14T03:10:18;95514.06;;;4.41;100.00
31873;BME280;22407;42.820;23.374;2024-02-14T03:12:47;95514.81;;;4.66;100.00
31873;BME280;22407;42.820;23.374;2024-02-14T03:15:13;95518.50;;;4.80;99.19
31873;BME280;22407;42.820;23.374;2024-02-14T03:17:39;95519.59;;;4.69;99.19
31873;BME280;22407;42.820;23.374;2024-02-14T03:20:05;95524.97;;;4.74;99.75
31873;BME280;22407;42.820;23.374;2024-02-14T03:22:36;95527.41;;;4.56;99.22
31873;BME280;22407;42.820;23.374;2024-02-14T03:25:02;95530.41;;;4.34;100.00
31873;BME280;22407;42.820;23.374;2024-02-14T03:27:28;95533.63;;;4.46;100.00
31873;BME280;22407;42.820;23.374;2024-02-14T03:29:54;95528.47;;;4.55;100.00
31873;BME280;22407;42.820;23.374;2024-02-14T03:32:23;95539.75;;;4.57;100.00
31873;BME280;22407;42.820;23.374;2024-02-14T03:34:49;95540.84;;;4.51;99.92
31873;BME280;22407;42.820;23.374;2024-02-14T03:37:14;95538.72;;;4.43;100.00
31873;BME280;22407;42.820;23.374;2024-02-14T03:39:40;95552.94;;;4.38;100.00
31873;BME280;22407;42.820;23.374;2024-02-14T03:42:05;95543.53;;;4.36;100.00
31873;BME280;22407;42.820;23.374;2024-02-14T03:44:33;95538.47;;;4.34;100.00
31873;BME280;22407;42.820;23.374;2024-02-14T03:46:58;95535.25;;;4.13;100.00
31873;BME280;22407;42.820;23.374;2024-02-14T03:49:25;95542.25;;;4.09;100.00
31873;BME280;22407;42.820;23.374;2024-02-14T03:51:51;95552.16;;;4.13;100.00
31873;BME280;22407;42.820;23.374;2024-02-14T03:54:20;95550.28;;;4.19;100.00
31873;BME280;22407;42.820;23.374;2024-02-14T03:56:45;95551.63;;;4.11;100.00
31873;BME280;22407;42.820;23.374;2024-02-14T03:59:11;95545.97;;;4.13;100.00
31873;BME280;22407;42.820;23.374;2024-02-14T04:01:36;95555.06;;;4.22;100.00
31873;BME280;22407;42.820;23.374;2024-02-14T04:04:02;95553.22;;;4.17;100.00
31873;BME280;22407;42.820;23.374;2024-02-14T04:06:28;95566.84;;;4.21;100.00
31873;BME280;22407;42.820;23.374;2024-02-14T04:08:57;95564.44;;;4.29;100.00
31873;BME280;22407;42.820;23.374;2024-02-14T04:11:22;95562.31;;;4.26;100.00
31873;BME280;22407;42.820;23.374;2024-02-14T04:13:48;95567.13;;;4.44;100.00
31873;BME280;22407;42.820;23.374;2024-02-14T04:16:13;95565.81;;;4.17;100.00
31873;BME280;22407;42.820;23.374;2024-02-14T04:18:39;95566.88;;;4.01;100.00
31873;BME280;22407;42.820;23.374;2024-02-14T04:21:07;95563.66;;;4.28;100.00
31873;BME280;22407;42.820;23.374;2024-02-14T04:23:33;95567.94;;;4.20;100.00
31873;BME280;22407;42.820;23.374;2024-02-14T04:25:58;95565.25;;;4.20;100.00
31873;BME280;22407;42.820;23.374;2024-02-14T04:28:24;95575.94;;;4.39;100.00
31873;BME280;22407;42.820;23.374;2024-02-14T04:30:49;95575.69;;;4.46;100.00
31873;BME280;22407;42.820;23.374;2024-02-14T04:33:15;95574.88;;;4.45;99.21
31873;BME280;22407;42.820;23.374;2024-02-14T04:35:40;95581.84;;;4.41;99.26
31873;BME280;22407;42.820;23.374;2024-02-14T04:38:06;95585.88;;;4.44;99.35
31873;BME280;22407;42.820;23.374;2024-02-14T04:40:34;95592.59;;;3.97;100.00
31873;BME280;22407;42.820;23.374;2024-02-14T04:43:00;95589.88;;;3.82;100.00
31873;BME280;22407;42.820;23.374;2024-02-14T04:45:25;95593.38;;;3.92;100.00
31873;BME280;22407;42.820;23.374;2024-02-14T04:47:51;95598.19;;;3.95;100.00
31873;BME280;22407;42.820;23.374;2024-02-14T04:50:17;95595.78;;;3.79;100.00
31873;BME280;22407;42.820;23.374;2024-02-14T04:52:44;95606.78;;;3.92;100.00
31873;BME280;22407;42.820;23.374;2024-02-14T04:55:09;95601.44;;;4.22;100.00
31873;BME280;22407;42.820;23.374;2024-02-14T04:57:35;95608.66;;;4.07;100.00
31873;BME280;22407;42.820;23.374;2024-02-14T05:00:03;95615.06;;;3.96;100.00
31873;BME280;22407;42.820;23.374;2024-02-14T05:02:30;95612.91;;;3.83;100.00
31873;BME280;22407;42.820;23.374;2024-02-14T05:04:55;95620.13;;;3.77;100.00
31873;BME280;22407;42.820;23.374;2024-02-14T05:07:21;95615.34;;;3.84;100.00
31873;BME280;22407;42.820;23.374;2024-02-14T05:09:46;95629.50;;;3.90;100.00
31873;BME280;22407;42.820;23.374;2024-02-14T05:12:13;95627.94;;;3.99;100.00
31873;BME280;22407;42.820;23.374;2024-02-14T05:14:39;95627.97;;;4.19;100.00
31873;BME280;22407;42.820;23.374;2024-02-14T05:17:07;95631.44;;;4.34;100.00
31873;BME280;22407;42.820;23.374;2024-02-14T05:19:32;95644.81;;;4.19;99.79
31873;BME280;22407;42.820;23.374;2024-02-14T05:21:58;95639.75;;;4.18;100.00
31873;BME280;22407;42.820;23.374;2024-02-14T05:24:23;95646.69;;;4.09;100.00
31873;BME280;22407;42.820;23.374;2024-02-14T05:26:52;95643.75;;;4.25;100.00
31873;BME280;22407;42.820;23.374;2024-02-14T05:29:18;95646.69;;;4.04;99.75
31873;BME280;22407;42.820;23.374;2024-02-14T05:31:46;95650.44;;;3.98;100.00
31873;BME280;22407;42.820;23.374;2024-02-14T05:34:14;95654.72;;;3.99;100.00
31873;BME280;22407;42.820;23.374;2024-02-14T05:36:39;95656.88;;;4.07;100.00
31873;BME280;22407;42.820;23.374;2024-02-14T05:39:05;95663.00;;;3.97;100.00
31873;BME280;22407;42.820;23.374;2024-02-14T05:41:33;95668.09;;;3.99;100.00
31873;BME280;22407;42.820;23.374;2024-02-14T05:44:00;95672.69;;;4.23;100.00
31873;BME280;22407;42.820;23.374;2024-02-14T05:46:25;95678.56;;;4.25;99.71
31873;BME280;22407;42.820;23.374;2024-02-14T05:48:51;95679.09;;;4.17;100.00
31873;BME280;22407;42.820;23.374;2024-02-14T05:51:18;95679.63;;;4.04;100.00
31873;BME280;22407;42.820;23.374;2024-02-14T05:53:44;95687.44;;;4.25;100.00
31873;BME280;22407;42.820;23.374;2024-02-14T05:56:09;95684.19;;;4.09;99.95
31873;BME280;22407;42.820;23.374;2024-02-14T05:58:35;95689.53;;;4.04;100.00
31873;BME280;22407;42.820;23.374;2024-02-14T06:01:01;95691.88;;;3.80;100.00
31873;BME280;22407;42.820;23.374;2024-02-14T06:03:26;95694.34;;;3.97;100.00
31873;BME280;22407;42.820;23.374;2024-02-14T06:05:52;95700.19;;;3.84;100.00
31873;BME280;22407;42.820;23.374;2024-02-14T06:08:18;95700.25;;;3.99;100.00
31873;BME280;22407;42.820;23.374;2024-02-14T06:10:43;95707.16;;;3.85;100.00
31873;BME280;22407;42.820;23.374;2024-02-14T06:13:09;95703.44;;;3.96;100.00
31873;BME280;22407;42.820;23.374;2024-02-14T06:15:35;95706.66;;;3.98;100.00
31873;BME280;22407;42.820;23.374;2024-02-14T06:18:00;95713.31;;;3.85;100.00
31873;BME280;22407;42.820;23.374;2024-02-14T06:20:26;95701.53;;;3.81;100.00
31873;BME280;22407;42.820;23.374;2024-02-14T06:22:51;95717.84;;;3.80;100.00
31873;BME280;22407;42.820;23.374;2024-02-14T06:25:20;95724.88;;;3.96;100.00
31873;BME280;22407;42.820;23.374;2024-02-14T06:27:45;95718.22;;;4.18;100.00
31873;BME280;22407;42.820;23.374;2024-02-14T06:30:11;95724.63;;;4.17;100.00
31873;BME280;22407;42.820;23.374;2024-02-14T06:32:37;95727.59;;;4.21;100.00
31873;BME280;22407;42.820;23.374;2024-02-14T06:35:03;95727.91;;;4.44;100.00
31873;BME280;22407;42.820;23.374;2024-02-14T06:37:28;95719.06;;;4.28;100.00
31873;BME280;22407;42.820;23.374;2024-02-14T06:39:54;95729.78;;;4.38;100.00
31873;BME280;22407;42.820;23.374;2024-02-14T06:42:19;95729.50;;;4.40;100.00
31873;BME280;22407;42.820;23.374;2024-02-14T06:44:45;95741.06;;;4.65;100.00
31873;BME280;22407;42.820;23.374;2024-02-14T06:47:11;95729.81;;;4.58;100.00
31873;BME280;22407;42.820;23.374;2024-02-14T06:49:36;95733.56;;;4.67;100.00
31873;BME280;22407;42.820;23.374;2024-02-14T06:52:03;95737.81;;;4.43;96.13
31873;BME280;22407;42.820;23.374;2024-02-14T06:54:29;95742.09;;;4.49;96.77
31873;BME280;22407;42.820;23.374;2024-02-14T06:56:54;95743.19;;;4.53;98.30
31873;BME280;22407;42.820;23.374;2024-02-14T06:59:20;95737.25;;;4.41;100.00
31873;BME280;22407;42.820;23.374;2024-02-14T07:01:45;95741.84;;;4.56;100.00
31873;BME280;22407;42.820;23.374;2024-02-14T07:04:11;95749.88;;;4.76;100.00
31873;BME280;22407;42.820;23.374;2024-02-14T07:06:36;95750.16;;;4.99;100.00
31873;BME280;22407;42.820;23.374;2024-02-14T07:09:02;95754.16;;;5.07;99.69
31873;BME280;22407;42.820;23.374;2024-02-14T07:11:28;95755.25;;;5.06;98.30
31873;BME280;22407;42.820;23.374;2024-02-14T07:13:53;95764.38;;;5.09;97.95
31873;BME280;22407;42.820;23.374;2024-02-14T07:16:19;95765.72;;;5.07;95.57
31873;BME280;22407;42.820;23.374;2024-02-14T07:18:44;95774.28;;;5.24;95.52
31873;BME280;22407;42.820;23.374;2024-02-14T07:21:10;95768.31;;;5.52;93.61
31873;BME280;22407;42.820;23.374;2024-02-14T07:23:35;95775.03;;;5.54;94.07
31873;BME280;22407;42.820;23.374;2024-02-14T07:26:01;95772.66;;;5.48;93.35
31873;BME280;22407;42.820;23.374;2024-02-14T07:28:27;95776.97;;;5.29;89.99
31873;BME280;22407;42.820;23.374;2024-02-14T07:30:53;95782.34;;;5.19;89.66
31873;BME280;22407;42.820;23.374;2024-02-14T07:33:18;95790.84;;;5.66;89.91
31873;BME280;22407;42.820;23.374;2024-02-14T07:35:44;95792.19;;;5.68;84.69
31873;BME280;22407;42.820;23.374;2024-02-14T07:38:09;95787.41;;;5.50;88.23
31873;BME280;22407;42.820;23.374;2024-02-14T07:40:35;95796.28;;;5.26;88.74
31873;BME280;22407;42.820;23.374;2024-02-14T07:43:01;95791.97;;;5.40;88.44
31873;BME280;22407;42.820;23.374;2024-02-14T07:45:27;95796.03;;;5.32;84.13
31873;BME280;22407;42.820;23.374;2024-02-14T07:47:53;95803.25;;;5.37;86.93
31873;BME280;22407;42.820;23.374;2024-02-14T07:50:18;95800.28;;;5.48;85.69
31873;BME280;22407;42.820;23.374;2024-02-14T07:52:45;95796.81;;;5.23;84.84
31873;BME280;22407;42.820;23.374;2024-02-14T07:55:11;95803.25;;;5.37;84.22
31873;BME280;22407;42.820;23.374;2024-02-14T07:57:38;95804.31;;;5.41;84.33
31873;BME280;22407;42.820;23.374;2024-02-14T08:00:07;95801.91;;;5.39;84.97
31873;BME280;22407;42.820;23.374;2024-02-14T08:02:34;95812.91;;;5.33;84.04
31873;BME280;22407;42.820;23.374;2024-02-14T08:05:00;95800.00;;;5.40;84.19
31873;BME280;22407;42.820;23.374;2024-02-14T08:07:25;95810.78;;;5.35;84.32
31873;BME280;22407;42.820;23.374;2024-02-14T08:09:51;95812.66;;;5.29;84.17
31873;BME280;22407;42.820;23.374;2024-02-14T08:12:16;95820.97;;;5.48;83.47
31873;BME280;22407;42.820;23.374;2024-02-14T08:14:42;95817.75;;;5.26;83.09
31873;BME280;22407;42.820;23.374;2024-02-14T08:17:08;95818.81;;;5.20;83.47
31873;BME280;22407;42.820;23.374;2024-02-14T08:19:33;95820.97;;;5.33;83.81
31873;BME280;22407;42.820;23.374;2024-02-14T08:22:00;95819.38;;;5.37;82.44
31873;BME280;22407;42.820;23.374;2024-02-14T08:24:26;95823.66;;;5.33;83.06
31873;BME280;22407;42.820;23.374;2024-02-14T08:26:53;95827.16;;;5.23;81.52
31873;BME280;22407;42.820;23.374;2024-02-14T08:29:18;95827.94;;;5.24;80.36
31873;BME280;22407;42.820;23.374;2024-02-14T08:31:44;95823.66;;;5.38;81.93
31873;BME280;22407;42.820;23.374;2024-02-14T08:34:09;95821.00;;;5.18;78.72
31873;BME280;22407;42.820;23.374;2024-02-14T08:36:35;95831.44;;;5.29;81.10
31873;BME280;22407;42.820;23.374;2024-02-14T08:39:09;95830.09;;;5.27;80.39
31873;BME280;22407;42.820;23.374;2024-02-14T08:41:39;95826.31;;;5.43;80.55
31873;BME280;22407;42.820;23.374;2024-02-14T08:44:08;95830.09;;;5.27;81.07
31873;BME280;22407;42.820;23.374;2024-02-14T08:46:34;95828.22;;;5.12;80.40
31873;BME280;22407;42.820;23.374;2024-02-14T08:49:00;95832.78;;;5.17;80.89
31873;BME280;22407;42.820;23.374;2024-02-14T08:51:36;95835.47;;;5.12;80.31
31873;BME280;22407;42.820;23.374;2024-02-14T08:54:02;95836.00;;;5.14;80.16
31873;BME280;22407;42.820;23.374;2024-02-14T08:56:31;95845.94;;;5.18;81.20
31873;BME280;22407;42.820;23.374;2024-02-14T08:59:00;95838.16;;;5.17;80.34
31873;BME280;22407;42.820;23.374;2024-02-14T09:01:26;95837.88;;;5.28;79.94
31873;BME280;22407;42.820;23.374;2024-02-14T09:03:51;95841.66;;;5.22;79.35
31873;BME280;22407;42.820;23.374;2024-02-14T09:06:17;95842.44;;;5.08;81.12
31873;BME280;22407;42.820;23.374;2024-02-14T09:08:46;95841.91;;;5.16;82.34
31873;BME280;22407;42.820;23.374;2024-02-14T09:11:11;95836.25;;;5.07;79.59
31873;BME280;22407;42.820;23.374;2024-02-14T09:13:38;95840.28;;;5.20;79.91
31873;BME280;22407;42.820;23.374;2024-02-14T09:16:07;95848.88;;;5.32;79.98
31873;BME280;22407;42.820;23.374;2024-02-14T09:18:33;95849.69;;;5.27;78.50
31873;BME280;22407;42.820;23.374;2024-02-14T09:20:59;95850.22;;;5.34;80.47
31873;BME280;22407;42.820;23.374;2024-02-14T09:23:24;95859.84;;;5.55;79.49
31873;BME280;22407;42.820;23.374;2024-02-14T09:25:50;95864.41;;;5.80;80.33
31873;BME280;22407;42.820;23.374;2024-02-14T09:28:16;95871.41;;;5.51;77.58
31873;BME280;22407;42.820;23.374;2024-02-14T09:30:42;95868.19;;;5.54;78.42
31873;BME280;22407;42.820;23.374;2024-02-14T09:33:07;95866.84;;;5.36;77.29
31873;BME280;22407;42.820;23.374;2024-02-14T09:35:33;95873.03;;;5.27;79.41
31873;BME280;22407;42.820;23.374;2024-02-14T09:38:00;95870.63;;;5.30;79.48
31873;BME280;22407;42.820;23.374;2024-02-14T09:40:25;95872.47;;;5.50;79.63
31873;BME280;22407;42.820;23.374;2024-02-14T09:42:55;95863.91;;;5.68;77.61
31873;BME280;22407;42.820;23.374;2024-02-14T09:45:27;95858.53;;;5.68;76.96
31873;BME280;22407;42.820;23.374;2024-02-14T09:47:56;95860.97;;;5.39;77.20
31873;BME280;22407;42.820;23.374;2024-02-14T09:50:23;95867.38;;;5.58;78.32
31873;BME280;22407;42.820;23.374;2024-02-14T09:52:50;95863.91;;;5.68;77.19
31873;BME280;22407;42.820;23.374;2024-02-14T09:55:16;95862.28;;;5.77;77.07
31873;BME280;22407;42.820;23.374;2024-02-14T09:57:43;95863.91;;;5.68;77.56
31873;BME280;22407;42.820;23.374;2024-02-14T10:00:12;95865.53;;;5.49;77.32
31873;BME280;22407;42.820;23.374;2024-02-14T10:02:41;95863.06;;;5.67;79.00
31873;BME280;22407;42.820;23.374;2024-02-14T10:05:07;95870.06;;;5.58;77.67
31873;BME280;22407;42.820;23.374;2024-02-14T10:07:43;95869.25;;;5.53;77.63
31873;BME280;22407;42.820;23.374;2024-02-14T10:10:09;95861.19;;;5.83;79.77
31873;BME280;22407;42.820;23.374;2024-02-14T10:12:36;95858.22;;;5.84;78.07
31873;BME280;22407;42.820;23.374;2024-02-14T10:15:01;95860.63;;;5.96;76.96
31873;BME280;22407;42.820;23.374;2024-02-14T10:17:27;95860.66;;;5.86;77.09
31873;BME280;22407;42.820;23.374;2024-02-14T10:22:22;95861.41;;;6.06;75.63
31873;BME280;22407;42.820;23.374;2024-02-14T10:24:48;95867.28;;;6.23;75.67
31873;BME280;22407;42.820;23.374;2024-02-14T10:27:15;95869.47;;;6.11;73.62
31873;BME280;22407;42.820;23.374;2024-02-14T10:29:40;95867.63;;;5.97;75.05
31873;BME280;22407;42.820;23.374;2024-02-14T10:32:07;95861.97;;;6.03;76.47
31873;BME280;22407;42.820;23.374;2024-02-14T10:34:33;95857.94;;;6.05;74.81
31873;BME280;22407;42.820;23.374;2024-02-14T10:36:59;95858.97;;;6.14;74.34
31873;BME280;22407;42.820;23.374;2024-02-14T10:39:26;95860.88;;;6.09;75.63
31873;BME280;22407;42.820;23.374;2024-02-14T10:41:52;95853.38;;;6.01;75.19
31873;BME280;22407;42.820;23.374;2024-02-14T10:44:18;95853.66;;;5.90;73.71
31873;BME280;22407;42.820;23.374;2024-02-14T10:46:44;95859.28;;;5.98;76.18
31873;BME280;22407;42.820;23.374;2024-02-14T10:49:12;95861.13;;;6.12;74.22
31873;BME280;22407;42.820;23.374;2024-02-14T10:51:42;95857.94;;;5.91;74.79
31873;BME280;22407;42.820;23.374;2024-02-14T10:54:11;95857.13;;;5.95;74.60
31873;BME280;22407;42.820;23.374;2024-02-14T10:56:42;95858.75;;;6.01;75.19
31873;BME280;22407;42.820;23.374;2024-02-14T10:59:16;95862.22;;;6.01;74.57
31873;BME280;22407;42.820;23.374;2024-02-14T11:01:44;95858.78;;;5.81;73.37
31873;BME280;22407;42.820;23.374;2024-02-14T11:04:09;95868.72;;;5.51;75.79
31873;BME280;22407;42.820;23.374;2024-02-14T11:06:45;95865.53;;;5.34;74.09
31873;BME280;22407;42.820;23.374;2024-02-14T11:09:12;95862.84;;;5.39;74.00
31873;BME280;22407;42.820;23.374;2024-02-14T11:11:43;95869.81;;;5.45;72.16
31873;BME280;22407;42.820;23.374;2024-02-14T11:14:09;95871.16;;;5.47;73.82
31873;BME280;22407;42.820;23.374;2024-02-14T11:16:37;95869.00;;;5.49;73.77
31873;BME280;22407;42.820;23.374;2024-02-14T11:19:10;95869.81;;;5.45;73.57
31873;BME280;22407;42.820;23.374;2024-02-14T11:21:40;95873.03;;;5.47;73.54
31873;BME280;22407;42.820;23.374;2024-02-14T11:24:12;95866.59;;;5.43;74.18
31873;BME280;22407;42.820;23.374;2024-02-14T11:26:46;95865.22;;;5.45;74.59
31873;BME280;22407;42.820;23.374;2024-02-14T11:29:16;95859.59;;;5.52;73.52
31873;BME280;22407;42.820;23.374;2024-02-14T11:31:42;95875.72;;;5.52;73.68
31873;BME280;22407;42.820;23.374;2024-02-14T11:34:10;95861.75;;;5.40;72.43
31873;BME280;22407;42.820;23.374;2024-02-14T11:36:36;95865.53;;;5.59;74.74
31873;BME280;22407;42.820;23.374;2024-02-14T11:39:03;95869.28;;;5.58;73.49
31873;BME280;22407;42.820;23.374;2024-02-14T11:41:32;95869.81;;;5.55;73.54
31873;BME280;22407;42.820;23.374;2024-02-14T11:44:01;95864.41;;;5.60;72.17
31873;BME280;22407;42.820;23.374;2024-02-14T11:46:33;95875.97;;;5.55;73.38
31873;BME280;22407;42.820;23.374;2024-02-14T11:49:03;95868.19;;;5.64;72.72
31873;BME280;22407;42.820;23.374;2024-02-14T11:51:30;95864.41;;;5.75;73.18
31873;BME280;22407;42.820;23.374;2024-02-14T11:54:00;95870.06;;;5.58;72.50
31873;BME280;22407;42.820;23.374;2024-02-14T11:56:31;95876.78;;;5.61;72.72
31873;BME280;22407;42.820;23.374;2024-02-14T11:59:00;95870.31;;;5.72;73.47
31873;BME280;22407;42.820;23.374;2024-02-14T12:01:31;95868.44;;;5.72;72.30
31873;BME280;22407;42.820;23.374;2024-02-14T12:04:02;95868.47;;;5.77;73.14
31873;BME280;22407;42.820;23.374;2024-02-14T12:06:29;95878.66;;;5.70;73.83
31873;BME280;22407;42.820;23.374;2024-02-14T12:08:57;95873.56;;;5.79;73.87
31873;BME280;22407;42.820;23.374;2024-02-14T12:11:27;95867.09;;;5.75;72.19
31873;BME280;22407;42.820;23.374;2024-02-14T12:13:53;95852.34;;;5.82;72.62
31873;BME280;22407;42.820;23.374;2024-02-14T12:16:21;95861.72;;;5.80;72.16
31873;BME280;22407;42.820;23.374;2024-02-14T12:18:47;95865.50;;;5.69;71.03
31873;BME280;22407;42.820;23.374;2024-02-14T12:21:13;95855.84;;;5.78;71.78
31873;BME280;22407;42.820;23.374;2024-02-14T12:23:39;95864.41;;;5.75;71.67
31873;BME280;22407;42.820;23.374;2024-02-14T12:26:04;95857.44;;;5.84;72.58
31873;BME280;22407;42.820;23.374;2024-02-14T12:28:31;95855.81;;;5.93;71.55
31873;BME280;22407;42.820;23.374;2024-02-14T12:30:57;95863.56;;;5.94;71.30
31873;BME280;22407;42.820;23.374;2024-02-14T12:33:27;95857.38;;;6.08;70.75
31873;BME280;22407;42.820;23.374;2024-02-14T12:35:54;95854.69;;;6.03;70.82
31873;BME280;22407;42.820;23.374;2024-02-14T12:38:20;95859.75;;;6.15;70.76
31873;BME280;22407;42.820;23.374;2024-02-14T12:40:48;95851.38;;;6.31;69.92
31873;BME280;22407;42.820;23.374;2024-02-14T12:43:15;95847.84;;;6.41;70.95
31873;BME280;22407;42.820;23.374;2024-02-14T12:45:43;95855.38;;;6.39;70.13
31873;BME280;22407;42.820;23.374;2024-02-14T12:48:10;95860.75;;;6.39;69.04
31873;BME280;22407;42.820;23.374;2024-02-14T12:50:37;95862.66;;;6.33;69.59
31873;BME280;22407;42.820;23.374;2024-02-14T12:53:12;95862.31;;;6.50;69.13
31873;BME280;22407;42.820;23.374;2024-02-14T12:55:37;95858.75;;;6.64;68.55
31873;BME280;22407;42.820;23.374;2024-02-14T12:58:03;95861.00;;;6.42;69.56
31873;BME280;22407;42.820;23.374;2024-02-14T13:00:29;95861.53;;;6.44;69.76
31873;BME280;22407;42.820;23.374;2024-02-14T13:02:57;95861.44;;;6.59;69.68
31873;BME280;22407;42.820;23.374;2024-02-14T13:05:23;95854.88;;;6.85;67.65
31873;BME280;22407;42.820;23.374;2024-02-14T13:07:51;95860.31;;;6.70;68.33
31873;BME280;22407;42.820;23.374;2024-02-14T13:10:16;95862.72;;;6.77;68.01
31873;BME280;22407;42.820;23.374;2024-02-14T13:12:41;95868.63;;;6.79;68.71
31873;BME280;22407;42.820;23.374;2024-02-14T13:15:09;95869.03;;;7.00;68.90
31873;BME280;22407;42.820;23.374;2024-02-14T13:17:35;95864.81;;;7.28;66.27
31873;BME280;22407;42.820;23.374;2024-02-14T13:20:00;95867.47;;;7.33;64.38
31873;BME280;22407;42.820;23.374;2024-02-14T13:22:27;95857.66;;;7.13;66.49
31873;BME280;22407;42.820;23.374;2024-02-14T13:24:53;95870.53;;;7.16;67.45
31873;BME280;22407;42.820;23.374;2024-02-14T13:27:18;95871.38;;;7.12;66.40
31873;BME280;22407;42.820;23.374;2024-02-14T13:29:47;95873.19;;;6.83;67.37
31873;BME280;22407;42.820;23.374;2024-02-14T13:32:12;95870.59;;;7.06;68.15
31873;BME280;22407;42.820;23.374;2024-02-14T13:34:38;95871.91;;;7.14;67.33
31873;BME280;22407;42.820;23.374;2024-02-14T13:37:04;95880.63;;;6.96;67.55
31873;BME280;22407;42.820;23.374;2024-02-14T13:39:29;95871.50;;;6.92;67.65
31873;BME280;22407;42.820;23.374;2024-02-14T13:41:55;95875.81;;;6.93;67.02
31873;BME280;22407;42.820;23.374;2024-02-14T13:44:23;95873.66;;;6.90;67.83
31873;BME280;22407;42.820;23.374;2024-02-14T13:46:50;95884.47;;;6.80;66.98
31873;BME280;22407;42.820;23.374;2024-02-14T13:49:19;95882.38;;;6.77;67.58
31873;BME280;22407;42.820;23.374;2024-02-14T13:51:51;95879.69;;;6.77;66.56
31873;BME280;22407;42.820;23.374;2024-02-14T13:54:23;95880.22;;;6.74;67.27
31873;BME280;22407;42.820;23.374;2024-02-14T13:56:49;95880.09;;;6.94;67.02
31873;BME280;22407;42.820;23.374;2024-02-14T13:59:15;95882.63;;;6.81;67.44
31873;BME280;22407;42.820;23.374;2024-02-14T14:01:42;95880.13;;;6.89;67.22
31873;BME280;22407;42.820;23.374;2024-02-14T14:04:07;95891.22;;;6.82;66.37